Marianne Danica — OWWO2 — position and weather

sailwx.info

Track history (hours):
 
Tides and Currents Weather Stations Pressure Air Temp Water Temp Dewpoint Dewpoint Depression Visibility Wind Speed Wind Dir Waves Ship Positions

Marianne Danica

Last reported at 2017-Nov-27 14:14 UTC. Time now 2017-Dec-13 22:43 UTC.
Position N 32°53' W 014°11'.
Warning: this ship's position is 16 days out of date.

Length 72 m; draft 3.5 m.

Type: Cargo ship. MMSI: 219544000.

Date/timePositionNaut miles runAvg speedWind from/ knotsBaromVisibWave heightAir tempDewpointWater temp
2017-Nov-27 14:14N 32°53' W 014°11'2 9.1
2017-Nov-27 14:00N 32°54' W 014°08'16 9.0
2017-Nov-27 12:15N 33°00' W 013°51'44910.1
2017-Nov-25 16:03N 35°58' W 005°31'1 8.6
2017-Nov-25 15:58N 35°58' W 005°31'5 8.1
2017-Nov-25 15:22N 35°60' W 005°25'3 8.0
2017-Nov-25 15:00N 35°59' W 005°21'4 8.7
2017-Nov-25 14:30N 35°55' W 005°19'1 2.6
2017-Nov-25 14:00N 35°54' W 005°18'0 0.0
2017-Nov-25 13:30N 35°54' W 005°18'0 0.0
2017-Nov-25 13:00N 35°54' W 005°18'0 0.0
2017-Nov-25 12:30N 35°54' W 005°18'0 0.0
2017-Nov-25 12:00N 35°54' W 005°18'0 0.0
2017-Nov-25 11:30N 35°54' W 005°18'0 0.0
2017-Nov-25 10:57N 35°54' W 005°18'0 0.0
2017-Nov-25 10:30N 35°54' W 005°18'0 0.2
2017-Nov-25 10:00N 35°54' W 005°18'1 1.9
2017-Nov-25 09:30N 35°55' W 005°19'1 1.3
2017-Nov-25 09:00N 35°55' W 005°20'0 0.1
2017-Nov-25 08:30N 35°55' W 005°20'0 0.0
2017-Nov-25 08:00N 35°55' W 005°20'0 0.0
2017-Nov-25 07:30N 35°55' W 005°20'0 0.0
2017-Nov-25 06:59N 35°55' W 005°20'0 0.7
2017-Nov-25 06:30N 35°55' W 005°19'3 6.5
2017-Nov-25 06:00N 35°57' W 005°22'611.3
2017-Nov-25 05:30N 35°56' W 005°29'12610.1
2017-Nov-24 17:04N 34°27' W 007°17'110.9
2017-Nov-24 16:58N 34°26' W 007°18'510.8
2017-Nov-24 16:30N 34°22' W 007°21'511.0
2017-Nov-24 16:00N 34°17' W 007°25'5 0.1
2017-Nov-23 03:23N 34°17' W 007°19'410.8
2017-Nov-23 03:00N 34°20' W 007°16'1210.4
2017-Nov-23 01:53N 34°30' W 007°08'410.6
2017-Nov-23 01:30N 34°33' W 007°05'510.8
2017-Nov-23 01:00N 34°37' W 007°01'610.8
2017-Nov-23 00:26N 34°42' W 006°57'810.9
2017-Nov-22 23:41N 34°49' W 006°52'211.2
2017-Nov-22 23:30N 34°51' W 006°51'611.5
2017-Nov-22 23:00N 34°56' W 006°47'510.8
2017-Nov-22 22:30N 34°60' W 006°43'510.9
2017-Nov-22 22:00N 35°04' W 006°39'  
2017-Nov-18 20:40N 38°43' E 008°40'3 9.9
2017-Nov-18 20:24N 38°44' E 008°43'6 9.9
2017-Nov-18 19:45N 38°46' E 008°50'3 9.8
2017-Nov-18 19:25N 38°48' E 008°54'5 9.8
2017-Nov-18 18:57N 38°49' E 008°60'510.0
2017-Nov-18 18:30N 38°51' E 009°05'510.1
2017-Nov-18 18:00N 38°52' E 009°11'510.2
2017-Nov-18 17:30N 38°54' E 009°18'  
Track history (hours):
 
Tides and Currents Weather Stations Pressure Air Temp Water Temp Dewpoint Dewpoint Depression Visibility Wind Speed Wind Dir Waves Ship Positions

Marianne Danica

Last reported at 2017-Nov-27 14:14 UTC. Time now 2017-Dec-13 22:43 UTC.
Position N 32°53' W 014°11'.
Warning: this ship's position is 16 days out of date.

Length 72 m; draft 3.5 m.

Type: Cargo ship. MMSI: 219544000.

Date/timePositionNaut miles runAvg speedWind from/ knotsBaromVisibWave heightAir tempDewpointWater temp
2017-Nov-27 14:14N 32°53' W 014°11'2 9.1
2017-Nov-27 14:00N 32°54' W 014°08'16 9.0
2017-Nov-27 12:15N 33°00' W 013°51'44910.1
2017-Nov-25 16:03N 35°58' W 005°31'1 8.6
2017-Nov-25 15:58N 35°58' W 005°31'5 8.1
2017-Nov-25 15:22N 35°60' W 005°25'3 8.0
2017-Nov-25 15:00N 35°59' W 005°21'4 8.7
2017-Nov-25 14:30N 35°55' W 005°19'1 2.6
2017-Nov-25 14:00N 35°54' W 005°18'0 0.0
2017-Nov-25 13:30N 35°54' W 005°18'0 0.0
2017-Nov-25 13:00N 35°54' W 005°18'0 0.0
2017-Nov-25 12:30N 35°54' W 005°18'0 0.0
2017-Nov-25 12:00N 35°54' W 005°18'0 0.0
2017-Nov-25 11:30N 35°54' W 005°18'0 0.0
2017-Nov-25 10:57N 35°54' W 005°18'0 0.0
2017-Nov-25 10:30N 35°54' W 005°18'0 0.2
2017-Nov-25 10:00N 35°54' W 005°18'1 1.9
2017-Nov-25 09:30N 35°55' W 005°19'1 1.3
2017-Nov-25 09:00N 35°55' W 005°20'0 0.1
2017-Nov-25 08:30N 35°55' W 005°20'0 0.0
2017-Nov-25 08:00N 35°55' W 005°20'0 0.0
2017-Nov-25 07:30N 35°55' W 005°20'0 0.0
2017-Nov-25 06:59N 35°55' W 005°20'0 0.7
2017-Nov-25 06:30N 35°55' W 005°19'3 6.5
2017-Nov-25 06:00N 35°57' W 005°22'611.3
2017-Nov-25 05:30N 35°56' W 005°29'12610.1
2017-Nov-24 17:04N 34°27' W 007°17'110.9
2017-Nov-24 16:58N 34°26' W 007°18'510.8
2017-Nov-24 16:30N 34°22' W 007°21'511.0
2017-Nov-24 16:00N 34°17' W 007°25'5 0.1
2017-Nov-23 03:23N 34°17' W 007°19'410.8
2017-Nov-23 03:00N 34°20' W 007°16'1210.4
2017-Nov-23 01:53N 34°30' W 007°08'410.6
2017-Nov-23 01:30N 34°33' W 007°05'510.8
2017-Nov-23 01:00N 34°37' W 007°01'610.8
2017-Nov-23 00:26N 34°42' W 006°57'810.9
2017-Nov-22 23:41N 34°49' W 006°52'211.2
2017-Nov-22 23:30N 34°51' W 006°51'611.5
2017-Nov-22 23:00N 34°56' W 006°47'510.8
2017-Nov-22 22:30N 34°60' W 006°43'510.9
2017-Nov-22 22:00N 35°04' W 006°39'  
2017-Nov-18 20:40N 38°43' E 008°40'3 9.9
2017-Nov-18 20:24N 38°44' E 008°43'6 9.9
2017-Nov-18 19:45N 38°46' E 008°50'3 9.8
2017-Nov-18 19:25N 38°48' E 008°54'5 9.8
2017-Nov-18 18:57N 38°49' E 008°60'510.0
2017-Nov-18 18:30N 38°51' E 009°05'510.1
2017-Nov-18 18:00N 38°52' E 009°11'510.2
2017-Nov-18 17:30N 38°54' E 009°18'  

Dump ship's entire track history